createdAt,value
2022-10-13T00:01:25.600Z,12.00
2022-10-13T00:03:55.254Z,12.00
2022-10-13T00:06:26.718Z,12.00
2022-10-13T00:08:57.393Z,12.00
2022-10-13T00:11:30.489Z,12.10
2022-10-13T00:14:05.023Z,12.20
2022-10-13T00:16:34.239Z,12.20
2022-10-13T00:19:02.298Z,12.20
2022-10-13T00:21:30.801Z,12.40
2022-10-13T00:24:01.646Z,12.40
2022-10-13T00:26:31.838Z,12.50
2022-10-13T00:28:59.697Z,12.50
2022-10-13T00:31:32.793Z,12.60
2022-10-13T00:34:03.649Z,12.60
2022-10-13T00:36:35.714Z,12.60
2022-10-13T00:39:09.137Z,12.60
2022-10-13T00:41:39.333Z,12.66
2022-10-13T00:45:02.005Z,12.64
2022-10-13T00:47:41.540Z,12.60
2022-10-13T00:50:18.687Z,12.60
2022-10-13T00:52:48.418Z,12.60
2022-10-13T00:55:21.513Z,12.52
2022-10-13T00:57:55.091Z,12.50
2022-10-13T01:00:25.956Z,12.50
2022-10-13T01:02:55.404Z,12.50
2022-10-13T01:05:26.196Z,12.50
2022-10-13T01:07:57.687Z,12.48
2022-10-13T01:10:48.936Z,12.40
2022-10-13T01:13:30.686Z,12.40
2022-10-13T01:16:52.599Z,12.40
2022-10-13T01:19:39.011Z,12.40
2022-10-13T01:22:50.042Z,12.38
2022-10-13T01:26:18.558Z,12.30
2022-10-13T01:29:27.490Z,12.30
2022-10-13T01:32:50.546Z,12.30
2022-10-13T01:35:34.314Z,12.20
2022-10-13T01:38:10.053Z,12.12
2022-10-13T01:41:17.698Z,12.10
2022-10-13T01:43:56.270Z,12.10
2022-10-13T01:46:31.209Z,12.00
2022-10-13T01:49:05.346Z,11.90
2022-10-13T01:51:37.493Z,11.90
2022-10-13T01:54:05.706Z,11.90
2022-10-13T01:56:35.901Z,11.82
2022-10-13T01:59:14.560Z,11.80
2022-10-13T02:02:14.155Z,11.70
2022-10-13T02:05:32.197Z,11.70
2022-10-13T02:08:16.612Z,11.56
2022-10-13T02:11:02.012Z,11.50
2022-10-13T02:13:36.870Z,11.50
2022-10-13T02:16:09.145Z,11.44
2022-10-13T02:18:38.438Z,11.40
2022-10-13T02:21:07.444Z,11.40
2022-10-13T02:23:37.297Z,11.38
2022-10-13T02:26:07.218Z,11.40
2022-10-13T02:28:38.456Z,11.40
2022-10-13T02:31:09.498Z,11.40
2022-10-13T02:33:37.656Z,11.40
2022-10-13T02:36:07.806Z,11.40
2022-10-13T02:38:35.738Z,11.40
2022-10-13T02:41:03.469Z,11.40
2022-10-13T02:43:33.958Z,11.30
2022-10-13T02:46:03.330Z,11.30
2022-10-13T02:48:31.229Z,11.32
2022-10-13T02:51:00.353Z,11.34
2022-10-13T02:53:28.056Z,11.34
2022-10-13T02:56:00.182Z,11.34
2022-10-13T02:58:28.333Z,11.30
2022-10-13T03:01:10.919Z,11.30
2022-10-13T03:03:42.138Z,11.30
2022-10-13T03:06:11.199Z,11.30
2022-10-13T03:08:40.251Z,11.30
2022-10-13T03:11:09.175Z,11.30
2022-10-13T03:13:39.252Z,11.30
2022-10-13T03:16:07.842Z,11.30
2022-10-13T03:18:35.952Z,11.38
2022-10-13T03:21:06.762Z,11.34
2022-10-13T03:23:35.265Z,11.30
2022-10-13T03:26:04.974Z,11.30
2022-10-13T03:28:34.481Z,11.40
2022-10-13T03:31:09.081Z,11.40
2022-10-13T03:33:36.846Z,11.40
2022-10-13T03:36:08.002Z,11.44
2022-10-13T03:38:38.145Z,11.50
2022-10-13T03:41:14.244Z,11.44
2022-10-13T03:43:45.119Z,11.40
2022-10-13T03:46:17.033Z,11.30
2022-10-13T03:48:46.232Z,11.26
2022-10-13T03:51:21.379Z,11.30
2022-10-13T03:53:52.746Z,11.26
2022-10-13T03:56:28.090Z,11.30
2022-10-13T03:59:01.851Z,11.20
2022-10-13T04:01:31.014Z,11.16
2022-10-13T04:04:02.465Z,11.20
2022-10-13T04:06:31.834Z,11.20
2022-10-13T04:09:00.924Z,11.20
2022-10-13T04:11:30.728Z,11.30
2022-10-13T04:13:58.946Z,11.30
2022-10-13T04:16:31.653Z,11.30
2022-10-13T04:19:03.377Z,11.30
2022-10-13T04:21:35.276Z,11.30
2022-10-13T04:24:05.570Z,11.20
2022-10-13T04:26:40.468Z,11.20
2022-10-13T04:29:12.433Z,11.20
2022-10-13T04:31:43.981Z,11.20
2022-10-13T04:34:14.470Z,11.14
2022-10-13T04:36:42.185Z,11.16
2022-10-13T04:39:11.053Z,11.20
2022-10-13T04:41:40.200Z,11.20
2022-10-13T04:44:08.830Z,11.12
2022-10-13T04:46:38.590Z,11.10
2022-10-13T04:49:19.430Z,11.10
2022-10-13T04:51:47.961Z,11.10
2022-10-13T04:54:15.805Z,11.20
2022-10-13T04:56:47.290Z,11.20
2022-10-13T04:59:16.267Z,11.20
2022-10-13T05:01:45.318Z,11.20
2022-10-13T05:04:15.965Z,11.20
2022-10-13T05:09:31.743Z,11.12
2022-10-13T05:11:59.784Z,11.20
2022-10-13T05:14:27.830Z,11.20
2022-10-13T05:16:55.930Z,11.22
2022-10-13T05:19:25.749Z,11.30
2022-10-13T05:21:55.265Z,11.30
2022-10-13T05:24:32.393Z,11.30
2022-10-13T05:27:00.097Z,11.40
2022-10-13T05:29:30.136Z,11.40
2022-10-13T05:31:59.257Z,11.40
2022-10-13T05:34:27.600Z,11.50
2022-10-13T05:36:56.208Z,11.50
2022-10-13T05:39:24.079Z,11.58
2022-10-13T05:41:52.925Z,11.60
2022-10-13T05:44:22.445Z,11.60
2022-10-13T05:46:50.302Z,11.66
2022-10-13T05:49:22.451Z,11.68
2022-10-13T05:52:03.769Z,11.60
2022-10-13T05:54:40.642Z,11.54
2022-10-13T05:57:18.021Z,11.50
2022-10-13T05:59:57.817Z,11.50
2022-10-13T06:02:36.284Z,11.50
2022-10-13T06:05:08.683Z,11.60
2022-10-13T06:07:36.385Z,11.60
2022-10-13T06:10:07.862Z,11.60
2022-10-13T06:12:38.447Z,11.60
2022-10-13T06:15:07.390Z,11.60
2022-10-13T06:17:39.861Z,11.60
2022-10-13T06:20:10.181Z,11.60
2022-10-13T06:22:42.629Z,11.60
2022-10-13T06:25:10.432Z,11.60
2022-10-13T06:27:39.681Z,11.54
2022-10-13T06:30:09.620Z,11.50
2022-10-13T06:32:37.749Z,11.52
2022-10-13T06:35:07.140Z,11.52
2022-10-13T06:37:37.529Z,11.60
2022-10-13T06:40:08.326Z,11.60
2022-10-13T06:42:36.554Z,11.60
2022-10-13T06:45:05.909Z,11.60
2022-10-13T06:47:36.855Z,11.60
2022-10-13T06:50:06.625Z,11.60
2022-10-13T06:52:34.624Z,11.60
2022-10-13T06:55:02.418Z,11.60
2022-10-13T06:57:33.445Z,11.60
2022-10-13T07:00:01.517Z,11.60
2022-10-13T07:02:30.935Z,11.60
2022-10-13T07:05:00.173Z,11.60
2022-10-13T07:07:28.154Z,11.60
2022-10-13T07:09:58.387Z,11.62
2022-10-13T07:12:26.091Z,11.62
2022-10-13T07:14:53.838Z,11.66
2022-10-13T07:17:22.124Z,11.66
2022-10-13T07:19:51.352Z,11.60
2022-10-13T07:22:20.373Z,11.60
2022-10-13T07:24:49.618Z,11.70
2022-10-13T07:27:17.617Z,11.70
2022-10-13T07:29:47.055Z,11.74
2022-10-13T07:32:17.024Z,11.80
2022-10-13T07:34:44.788Z,11.80
2022-10-13T07:37:14.230Z,11.80
2022-10-13T07:39:42.078Z,11.80
2022-10-13T07:42:10.317Z,11.80
2022-10-13T07:44:40.884Z,11.80
2022-10-13T07:47:09.444Z,11.80
2022-10-13T07:49:38.405Z,11.72
2022-10-13T07:52:06.557Z,11.80
2022-10-13T07:54:35.818Z,11.80
2022-10-13T07:57:04.302Z,11.80
2022-10-13T07:59:34.173Z,11.82
2022-10-13T08:02:02.287Z,11.88
2022-10-13T08:04:36.477Z,11.90
2022-10-13T08:07:09.769Z,11.90
2022-10-13T08:09:39.109Z,12.00
2022-10-13T08:12:07.768Z,12.00
2022-10-13T08:14:35.583Z,12.00
2022-10-13T08:17:03.727Z,12.00
2022-10-13T08:19:33.298Z,12.00
2022-10-13T08:22:01.569Z,12.00
2022-10-13T08:24:29.605Z,12.02
2022-10-13T08:26:57.762Z,12.10
2022-10-13T08:29:26.309Z,12.20
2022-10-13T08:31:58.009Z,12.30
2022-10-13T08:34:26.929Z,12.30
2022-10-13T08:36:56.513Z,12.30
2022-10-13T08:39:34.111Z,12.20
2022-10-13T08:42:05.359Z,12.20
2022-10-13T08:45:16.150Z,12.20
2022-10-13T08:47:54.577Z,12.26
2022-10-13T08:50:29.019Z,12.30
2022-10-13T08:53:02.658Z,12.30
2022-10-13T08:55:36.028Z,12.30
2022-10-13T08:58:19.475Z,12.30
2022-10-13T09:00:49.377Z,12.30
2022-10-13T09:03:26.227Z,12.32
2022-10-13T09:06:31.976Z,12.40
2022-10-13T09:09:13.385Z,12.44
2022-10-13T09:11:48.077Z,12.50
2022-10-13T09:14:28.755Z,12.50
2022-10-13T09:17:27.623Z,12.58
2022-10-13T09:20:07.336Z,12.60
2022-10-13T09:22:40.419Z,12.60
2022-10-13T09:25:22.229Z,12.60
2022-10-13T09:28:01.813Z,12.60
2022-10-13T09:30:50.293Z,12.60
2022-10-13T09:33:28.170Z,12.60
2022-10-13T09:36:02.717Z,12.60
2022-10-13T09:38:34.922Z,12.66
2022-10-13T09:41:15.868Z,12.70
2022-10-13T09:43:48.020Z,12.70
2022-10-13T09:46:26.486Z,12.70
2022-10-13T09:49:08.930Z,12.70
2022-10-13T09:51:45.015Z,12.70
2022-10-13T09:54:44.203Z,12.70
2022-10-13T09:57:43.581Z,12.70
2022-10-13T10:00:43.484Z,12.72
2022-10-13T10:03:31.377Z,12.80
2022-10-13T10:06:19.067Z,12.80
2022-10-13T10:09:02.773Z,12.90
2022-10-13T10:11:37.868Z,12.90
2022-10-13T10:14:39.306Z,12.90
2022-10-13T10:17:13.807Z,12.90
2022-10-13T10:20:17.357Z,12.90
2022-10-13T10:23:13.504Z,12.90
2022-10-13T10:26:23.703Z,12.88
2022-10-13T10:29:47.742Z,12.90
2022-10-13T10:33:14.753Z,12.80
2022-10-13T10:36:26.201Z,12.80
2022-10-13T10:39:29.466Z,12.70
2022-10-13T10:42:24.066Z,12.70
2022-10-13T10:44:56.345Z,12.70
2022-10-13T10:47:32.387Z,12.70
2022-10-13T10:50:06.803Z,12.70
2022-10-13T10:52:55.792Z,12.70
2022-10-13T10:55:48.419Z,12.70
2022-10-13T10:58:57.422Z,12.70
2022-10-13T11:01:44.804Z,12.70
2022-10-13T11:04:40.887Z,12.70
2022-10-13T11:07:23.994Z,12.80
2022-10-13T11:09:56.286Z,12.80
2022-10-13T11:12:45.387Z,12.80
2022-10-13T11:15:25.002Z,12.82
2022-10-13T11:17:54.504Z,12.84
2022-10-13T11:20:35.530Z,12.90
2022-10-13T11:23:07.517Z,12.90
2022-10-13T11:25:47.655Z,12.90
2022-10-13T11:28:30.481Z,13.00
2022-10-13T11:31:51.503Z,13.00
2022-10-13T11:34:32.545Z,12.96
2022-10-13T11:37:03.101Z,12.90
2022-10-13T11:40:04.781Z,13.00
2022-10-13T11:42:58.393Z,13.00
2022-10-13T11:46:08.225Z,13.02
2022-10-13T11:49:16.005Z,13.10
2022-10-13T11:51:59.417Z,13.20
2022-10-13T11:54:45.558Z,13.20
2022-10-13T11:57:24.501Z,13.30
2022-10-13T11:59:56.897Z,13.30
2022-10-13T12:02:28.615Z,13.30
2022-10-13T12:05:24.438Z,13.38
2022-10-13T12:08:00.894Z,13.40
2022-10-13T12:10:39.034Z,13.40
2022-10-13T12:13:27.574Z,13.40
2022-10-13T12:16:10.147Z,13.40
2022-10-13T12:18:42.539Z,13.50
2022-10-13T12:21:25.160Z,13.46
2022-10-13T12:24:16.410Z,13.42
2022-10-13T12:26:47.404Z,13.40
2022-10-13T12:29:37.227Z,13.40
2022-10-13T12:32:51.241Z,13.40
2022-10-13T12:35:30.601Z,13.50
2022-10-13T12:38:13.547Z,13.50
2022-10-13T12:40:45.410Z,13.50
2022-10-13T12:43:25.589Z,13.60
2022-10-13T12:45:54.825Z,13.60
2022-10-13T12:48:43.477Z,13.60
2022-10-13T12:51:27.632Z,13.60
2022-10-13T12:53:57.069Z,13.60
2022-10-13T12:56:34.320Z,13.58
2022-10-13T12:59:02.836Z,13.58
2022-10-13T13:01:35.687Z,13.50
2022-10-13T13:04:32.854Z,13.50
2022-10-13T13:07:07.000Z,13.40
2022-10-13T13:09:46.209Z,13.32
2022-10-13T13:12:29.100Z,13.30
2022-10-13T13:14:58.860Z,13.30
2022-10-13T13:17:57.122Z,13.30
2022-10-13T13:20:33.417Z,13.30
2022-10-13T13:23:02.896Z,13.30
2022-10-13T13:25:33.963Z,13.30
2022-10-13T13:28:10.591Z,13.30
2022-10-13T13:30:38.369Z,13.30
2022-10-13T13:33:06.347Z,13.30
2022-10-13T13:35:36.069Z,13.30
2022-10-13T13:38:06.772Z,13.30
2022-10-13T13:40:36.349Z,13.30
2022-10-13T13:43:09.736Z,13.30
2022-10-13T13:45:38.602Z,13.30
2022-10-13T13:48:06.533Z,13.30
2022-10-13T13:50:38.299Z,13.30
2022-10-13T13:53:07.367Z,13.30
2022-10-13T13:55:37.353Z,13.30
2022-10-13T13:58:05.486Z,13.34
2022-10-13T14:00:35.628Z,13.30
2022-10-13T14:03:03.378Z,13.24
2022-10-13T14:05:32.317Z,13.20
2022-10-13T14:08:00.157Z,13.20
2022-10-13T14:10:30.675Z,13.16
2022-10-13T14:12:58.482Z,13.20
2022-10-13T14:15:29.869Z,13.20
2022-10-13T14:18:00.140Z,13.20
2022-10-13T14:20:31.263Z,13.20
2022-10-13T14:22:58.899Z,13.20
2022-10-13T14:25:31.099Z,13.20
2022-10-13T14:28:00.846Z,13.20
2022-10-13T14:30:29.865Z,13.20
2022-10-13T14:33:01.147Z,13.20
2022-10-13T14:35:29.321Z,13.20
2022-10-13T14:37:58.205Z,13.20
2022-10-13T14:40:29.169Z,13.20
2022-10-13T14:42:57.614Z,13.20
2022-10-13T14:45:26.879Z,13.30
2022-10-13T14:47:54.561Z,13.30
2022-10-13T14:50:24.004Z,13.30
2022-10-13T14:52:53.920Z,13.30
2022-10-13T14:55:25.397Z,13.30
2022-10-13T14:57:53.285Z,13.30
2022-10-13T15:00:21.179Z,13.24
2022-10-13T15:02:50.717Z,13.24
2022-10-13T15:05:19.912Z,13.26
2022-10-13T15:07:48.907Z,13.30
2022-10-13T15:10:18.242Z,13.30
2022-10-13T15:12:47.836Z,13.30
2022-10-13T15:15:15.589Z,13.30
2022-10-13T15:17:43.470Z,13.30
2022-10-13T15:20:18.953Z,13.30
2022-10-13T15:22:54.962Z,13.30
2022-10-13T15:25:29.300Z,13.30
2022-10-13T15:27:56.999Z,13.20
2022-10-13T15:30:24.985Z,13.20
2022-10-13T15:32:54.055Z,13.20
2022-10-13T15:35:22.591Z,13.20
2022-10-13T15:37:53.900Z,13.20
2022-10-13T15:40:27.154Z,13.10
2022-10-13T15:42:56.176Z,13.10
2022-10-13T15:45:30.631Z,13.04
2022-10-13T15:48:05.001Z,13.04
2022-10-13T15:50:34.576Z,13.00
2022-10-13T15:53:04.911Z,13.00
2022-10-13T15:55:34.541Z,13.00
2022-10-13T15:58:03.824Z,13.00
2022-10-13T16:00:33.697Z,13.00
2022-10-13T16:03:05.514Z,12.90
2022-10-13T16:05:34.845Z,12.90
2022-10-13T16:08:05.358Z,12.80
2022-10-13T16:10:33.669Z,12.80
2022-10-13T16:13:01.330Z,12.80
2022-10-13T16:15:29.213Z,12.80
2022-10-13T16:17:56.943Z,12.80
2022-10-13T16:20:27.017Z,12.80
2022-10-13T16:22:55.825Z,12.90
2022-10-13T16:25:23.574Z,12.90
2022-10-13T16:27:53.989Z,12.84
2022-10-13T16:30:23.267Z,12.86
2022-10-13T16:32:56.316Z,12.90
2022-10-13T16:35:25.714Z,12.90
2022-10-13T16:37:54.493Z,12.90
2022-10-13T16:40:22.307Z,12.90
2022-10-13T16:42:50.955Z,12.90
2022-10-13T16:45:55.048Z,12.90
2022-10-13T16:48:21.944Z,13.00
2022-10-13T16:50:50.061Z,12.90
2022-10-13T16:53:19.603Z,12.90
2022-10-13T16:55:48.929Z,12.90
2022-10-13T16:58:17.555Z,12.90
2022-10-13T17:00:51.518Z,12.90
2022-10-13T17:03:19.731Z,12.90
2022-10-13T17:05:55.590Z,12.80
2022-10-13T17:08:25.639Z,12.80
2022-10-13T17:10:58.225Z,12.80
2022-10-13T17:13:27.960Z,12.80
2022-10-13T17:16:00.167Z,12.80
2022-10-13T17:18:29.267Z,12.78
2022-10-13T17:21:00.702Z,12.70
2022-10-13T17:23:32.411Z,12.60
2022-10-13T17:26:09.553Z,12.60
2022-10-13T17:28:44.454Z,12.50
2022-10-13T17:31:20.435Z,12.50
2022-10-13T17:33:54.860Z,12.58
2022-10-13T17:36:28.223Z,12.50
2022-10-13T17:39:01.728Z,12.50
2022-10-13T17:41:29.945Z,12.40
2022-10-13T17:43:58.755Z,12.30
2022-10-13T17:46:37.926Z,12.24
2022-10-13T17:49:11.251Z,12.30
2022-10-13T17:51:44.726Z,12.30
2022-10-13T17:54:15.965Z,12.38
2022-10-13T17:56:47.866Z,12.38
2022-10-13T17:59:18.769Z,12.40
2022-10-13T18:01:55.174Z,12.40
2022-10-13T18:04:23.720Z,12.48
2022-10-13T18:06:51.434Z,12.48
2022-10-13T18:09:30.547Z,12.40
2022-10-13T18:11:58.985Z,12.40
2022-10-13T18:14:33.173Z,12.32
2022-10-13T18:17:07.535Z,12.30
2022-10-13T18:19:40.376Z,12.30
2022-10-13T18:22:11.395Z,12.30
2022-10-13T18:24:54.577Z,12.30
2022-10-13T18:27:26.091Z,12.30
2022-10-13T18:29:54.796Z,12.30
2022-10-13T18:32:28.441Z,12.40
2022-10-13T18:35:01.422Z,12.46
2022-10-13T18:37:30.399Z,12.50
2022-10-13T18:40:01.998Z,12.50
2022-10-13T18:42:37.052Z,12.50
2022-10-13T18:45:09.494Z,12.40
2022-10-13T18:47:37.955Z,12.30
2022-10-13T18:50:08.578Z,12.20
2022-10-13T18:52:38.934Z,12.10
2022-10-13T18:55:07.914Z,12.00
2022-10-13T18:57:39.589Z,12.00
2022-10-13T19:00:10.497Z,12.00
2022-10-13T19:02:41.692Z,12.00
2022-10-13T19:05:10.449Z,12.00
2022-10-13T19:07:39.558Z,12.00
2022-10-13T19:10:11.739Z,12.10
2022-10-13T19:12:41.210Z,12.14
2022-10-13T19:15:16.205Z,12.20
2022-10-13T19:17:44.448Z,12.20
2022-10-13T19:20:14.229Z,12.20
2022-10-13T19:22:43.737Z,12.20
2022-10-13T19:25:11.896Z,12.20
2022-10-13T19:27:41.136Z,12.20
2022-10-13T19:30:10.373Z,12.20
2022-10-13T19:32:40.568Z,12.24
2022-10-13T19:35:08.997Z,12.20
2022-10-13T19:37:39.098Z,12.22
2022-10-13T19:40:08.670Z,12.20
2022-10-13T19:42:38.480Z,12.20
2022-10-13T19:45:07.317Z,12.20
2022-10-13T19:47:39.188Z,12.20
2022-10-13T19:50:13.722Z,12.30
2022-10-13T19:52:43.722Z,12.40
2022-10-13T19:55:13.791Z,12.40
2022-10-13T19:57:42.619Z,12.40
2022-10-13T20:00:12.951Z,12.40
2022-10-13T20:02:42.163Z,12.40
2022-10-13T20:05:10.921Z,12.40
2022-10-13T20:07:40.917Z,12.40
2022-10-13T20:10:11.050Z,12.40
2022-10-13T20:12:44.230Z,12.40
2022-10-13T20:15:12.623Z,12.50
2022-10-13T20:17:42.847Z,12.50
2022-10-13T20:20:11.016Z,12.46
2022-10-13T20:22:41.417Z,12.40
2022-10-13T20:25:13.624Z,12.40
2022-10-13T20:27:42.008Z,12.32
2022-10-13T20:30:12.585Z,12.30
2022-10-13T20:32:41.160Z,12.32
2022-10-13T20:35:14.548Z,12.30
2022-10-13T20:37:43.094Z,12.30
2022-10-13T20:40:11.664Z,12.22
2022-10-13T20:42:41.102Z,12.20
2022-10-13T20:45:11.081Z,12.20
2022-10-13T20:47:40.503Z,12.20
2022-10-13T20:50:10.448Z,12.22
2022-10-13T20:52:40.520Z,12.20
2022-10-13T20:55:13.072Z,12.20
2022-10-13T20:57:41.699Z,12.20
2022-10-13T21:00:10.709Z,12.14
2022-10-13T21:02:38.327Z,12.14
2022-10-13T21:05:07.990Z,12.10
2022-10-13T21:07:37.326Z,12.10
2022-10-13T21:10:09.622Z,12.00
2022-10-13T21:12:41.596Z,12.00
2022-10-13T21:15:12.446Z,11.98
2022-10-13T21:17:42.417Z,11.98
2022-10-13T21:20:10.863Z,11.90
2022-10-13T21:22:42.422Z,11.90
2022-10-13T21:25:10.436Z,11.80
2022-10-13T21:27:38.732Z,11.80
2022-10-13T21:30:08.713Z,11.80
2022-10-13T21:32:36.914Z,11.80
2022-10-13T21:35:05.771Z,11.80
2022-10-13T21:37:35.690Z,11.80
2022-10-13T21:40:07.068Z,11.78
2022-10-13T21:42:35.498Z,11.70
2022-10-13T21:45:04.581Z,11.70
2022-10-13T21:47:37.167Z,11.60
2022-10-13T21:50:09.992Z,11.60
2022-10-13T21:52:38.241Z,11.50
2022-10-13T21:55:09.673Z,11.50
2022-10-13T21:57:37.433Z,11.50
2022-10-13T22:00:06.907Z,11.50
2022-10-13T22:02:34.929Z,11.50
2022-10-13T22:05:04.136Z,11.50
2022-10-13T22:07:32.875Z,11.50
2022-10-13T22:10:04.508Z,11.40
2022-10-13T22:12:37.789Z,11.32
2022-10-13T22:15:13.087Z,11.26
2022-10-13T22:17:41.166Z,11.20
2022-10-13T22:20:09.489Z,11.20
2022-10-13T22:22:39.555Z,11.20
2022-10-13T22:25:08.888Z,11.10
2022-10-13T22:27:38.062Z,11.10
2022-10-13T22:30:08.584Z,11.10
2022-10-13T22:32:37.863Z,11.10
2022-10-13T22:35:06.121Z,11.06
2022-10-13T22:37:34.638Z,11.00
2022-10-13T22:40:07.730Z,11.00
2022-10-13T22:42:36.627Z,11.00
2022-10-13T22:45:08.574Z,11.00
2022-10-13T22:47:39.560Z,10.92
2022-10-13T22:50:09.645Z,10.90
2022-10-13T22:52:45.958Z,10.82
2022-10-13T22:55:15.620Z,10.80
2022-10-13T22:57:44.095Z,10.80
2022-10-13T23:00:15.465Z,10.70
2022-10-13T23:02:43.263Z,10.70
2022-10-13T23:05:11.304Z,10.70
2022-10-13T23:07:41.306Z,10.70
2022-10-13T23:10:12.020Z,10.70
2022-10-13T23:12:40.813Z,10.70
2022-10-13T23:15:10.167Z,10.70
2022-10-13T23:17:38.207Z,10.70
2022-10-13T23:20:07.622Z,10.70
2022-10-13T23:22:36.575Z,10.70
2022-10-13T23:25:05.662Z,10.70
2022-10-13T23:27:34.023Z,10.70
2022-10-13T23:30:06.851Z,10.60
2022-10-13T23:32:34.480Z,10.60
2022-10-13T23:35:02.441Z,10.60
2022-10-13T23:37:30.097Z,10.58
2022-10-13T23:39:58.426Z,10.52
2022-10-13T23:42:26.268Z,10.60
2022-10-13T23:44:54.625Z,10.58
2022-10-13T23:47:23.007Z,10.60
2022-10-13T23:49:51.661Z,10.50
2022-10-13T23:52:20.653Z,10.50
2022-10-13T23:54:51.548Z,10.46
2022-10-13T23:57:19.830Z,10.40
2022-10-13T23:59:47.917Z,10.32
